Time;durP1;ratioP1;P1;durP2;ratioP2;P2;SDS_P1;SDS_P2;PMS_P1;PMS_P2;Temp;Humidity;BMP_temperature;BMP_pressure;BME280_temperature;BME280_humidity;BME280_pressure;Samples;Min_cycle;Max_cycle;Signal;HPM_P1;HPM_P2
2022/10/22 00:01:16;;;;;;;72.28;37.50;;;;;;;;;;5034481;28;20029;-78
2022/10/22 00:03:44;;;;;;;73.57;38.38;;;;;;;;;;5035059;28;20033;-79
2022/10/22 00:06:15;;;;;;;66.78;37.90;;;;;;;;;;5032342;28;20025;-80
2022/10/22 00:08:41;;;;;;;69.55;37.78;;;;;;;;;;5046127;28;20036;-79
2022/10/22 00:11:09;;;;;;;66.70;36.55;;;;;;;;;;5039109;28;20037;-79
2022/10/22 00:13:38;;;;;;;63.20;36.83;;;;;;;;;;5026009;28;20075;-78
2022/10/22 00:16:24;;;;;;;64.65;36.25;;;;;;;;;;5055116;28;20021;-80
2022/10/22 00:18:53;;;;;;;61.35;35.65;;;;;;;;;;5035428;28;20106;-81
2022/10/22 00:21:22;;;;;;;74.13;38.22;;;;;;;;;;5057877;28;20031;-79
2022/10/22 00:23:54;;;;;;;68.25;37.55;;;;;;;;;;5053131;28;20124;-79
2022/10/22 00:26:22;;;;;;;61.95;36.30;;;;;;;;;;5036595;28;20107;-79
2022/10/22 00:29:00;;;;;;;61.38;36.17;;;;;;;;;;5054795;28;20029;-79
2022/10/22 00:31:26;;;;;;;65.13;37.28;;;;;;;;;;5037486;28;20456;-79
2022/10/22 00:33:52;;;;;;;63.20;36.85;;;;;;;;;;5033497;28;20042;-79
2022/10/22 00:36:18;;;;;;;66.55;36.22;;;;;;;;;;5029772;28;20045;-79
2022/10/22 00:38:44;;;;;;;70.07;37.75;;;;;;;;;;5051845;28;20079;-79
2022/10/22 00:41:10;;;;;;;74.70;38.28;;;;;;;;;;5036647;28;20040;-79
2022/10/22 00:43:53;;;;;;;67.93;37.75;;;;;;;;;;5029703;28;20033;-79
2022/10/22 00:46:28;;;;;;;68.28;38.15;;;;;;;;;;5052971;28;20040;-79
2022/10/22 00:48:55;;;;;;;77.85;39.05;;;;;;;;;;5039407;28;20025;-79
2022/10/22 00:51:26;;;;;;;76.68;41.63;;;;;;;;;;5031451;28;20025;-79
2022/10/22 00:53:53;;;;;;;;;;;;;;;;;;5033997;28;20025;-79
2022/10/22 00:56:20;;;;;;;76.20;41.08;;;;;;;;;;5030238;28;19911;-78
2022/10/22 00:58:56;;;;;;;81.30;40.55;;;;;;;;;;5028271;28;20041;-78
2022/10/22 01:01:24;;;;;;;79.97;43.30;;;;;;;;;;5024252;28;20029;-77
2022/10/22 01:03:54;;;;;;;85.22;44.28;;;;;;;;;;5034276;28;20089;-80
2022/10/22 01:06:25;;;;;;;84.03;43.42;;;;;;;;;;5034501;28;20487;-79
2022/10/22 01:09:06;;;;;;;81.90;43.25;;;;;;;;;;5036862;28;20095;-80
2022/10/22 01:11:52;;;;;;;83.17;43.83;;;;;;;;;;5044831;28;20029;-79
2022/10/22 01:14:27;;;;;;;76.78;40.85;;;;;;;;;;5048021;28;20260;-79
2022/10/22 01:16:56;;;;;;;75.43;40.75;;;;;;;;;;5046844;28;20067;-80
2022/10/22 01:19:32;;;;;;;72.38;40.67;;;;;;;;;;5053164;28;20036;-79
2022/10/22 01:22:01;;;;;;;71.15;38.58;;;;;;;;;;5029720;28;20079;-79
2022/10/22 01:24:36;;;;;;;67.22;37.22;;;;;;;;;;5031141;28;20095;-80
2022/10/22 01:27:14;;;;;;;61.92;35.97;;;;;;;;;;5035682;28;20041;-79
2022/10/22 01:29:58;;;;;;;67.82;35.88;;;;;;;;;;5037343;28;20096;-80
2022/10/22 01:32:51;;;;;;;67.85;36.65;;;;;;;;;;5046409;28;20120;-79
2022/10/22 01:35:29;;;;;;;70.68;39.13;;;;;;;;;;5040282;28;20022;-79
2022/10/22 01:37:59;;;;;;;69.40;37.80;;;;;;;;;;5044016;28;20475;-80
2022/10/22 01:40:29;;;;;;;64.70;38.15;;;;;;;;;;5053969;28;20515;-79
2022/10/22 01:43:03;;;;;;;66.38;35.67;;;;;;;;;;5053821;28;20032;-80
2022/10/22 01:45:32;;;;;;;67.05;36.45;;;;;;;;;;5014547;28;20033;-79
2022/10/22 01:47:58;;;;;;;66.90;37.78;;;;;;;;;;5034120;28;20044;-78
2022/10/22 01:50:31;;;;;;;71.65;37.60;;;;;;;;;;5021644;28;20159;-79
2022/10/22 01:53:09;;;;;;;64.22;36.78;;;;;;;;;;5034807;28;20021;-79
2022/10/22 01:55:47;;;;;;;84.60;37.63;;;;;;;;;;5011855;28;20373;-79
2022/10/22 01:58:13;;;;;;;63.38;35.33;;;;;;;;;;5027570;28;20395;-79
2022/10/22 02:01:05;;;;;;;65.80;39.72;;;;;;;;;;5031633;28;20029;-79
2022/10/22 02:03:41;;;;;;;62.60;37.15;;;;;;;;;;4980104;28;20041;-79
2022/10/22 02:06:15;;;;;;;71.07;39.50;;;;;;;;;;5040939;28;20029;-80
2022/10/22 02:08:42;;;;;;;68.13;37.25;;;;;;;;;;5038804;28;20086;-78
2022/10/22 02:11:09;;;;;;;66.78;37.58;;;;;;;;;;5052164;28;20117;-79
2022/10/22 02:13:46;;;;;;;67.45;37.63;;;;;;;;;;5023518;28;20080;-80
2022/10/22 02:16:15;;;;;;;71.03;40.30;;;;;;;;;;5037193;28;20147;-79
2022/10/22 02:18:48;;;;;;;64.72;37.63;;;;;;;;;;5031372;28;20052;-78
2022/10/22 02:21:22;;;;;;;62.08;37.13;;;;;;;;;;5028621;28;20025;-78
2022/10/22 02:23:51;;;;;;;68.30;39.53;;;;;;;;;;5018090;28;20051;-79
2022/10/22 02:26:35;;;;;;;65.18;36.90;;;;;;;;;;5035614;28;20034;-79
2022/10/22 02:29:11;;;;;;;69.93;38.53;;;;;;;;;;5026873;28;20547;-79
2022/10/22 02:31:46;;;;;;;68.47;39.67;;;;;;;;;;5051052;28;20033;-79
2022/10/22 02:34:21;;;;;;;73.00;39.80;;;;;;;;;;5053277;28;20025;-80
2022/10/22 02:36:51;;;;;;;70.45;38.03;;;;;;;;;;5057139;28;20013;-80
2022/10/22 02:39:18;;;;;;;77.32;41.10;;;;;;;;;;5059944;28;20558;-80
2022/10/22 02:41:48;;;;;;;71.38;40.08;;;;;;;;;;5034511;28;20480;-79
2022/10/22 02:44:20;;;;;;;76.22;41.60;;;;;;;;;;5041594;28;20030;-80
2022/10/22 02:46:56;;;;;;;71.13;38.78;;;;;;;;;;5034152;28;20517;-79
2022/10/22 02:49:25;;;;;;;72.95;39.95;;;;;;;;;;5041547;28;20079;-78
2022/10/22 02:51:51;;;;;;;72.63;41.00;;;;;;;;;;5035550;28;20029;-79
2022/10/22 02:54:20;;;;;;;70.68;39.17;;;;;;;;;;5043717;28;20115;-79
2022/10/22 02:56:49;;;;;;;69.80;38.80;;;;;;;;;;5029660;28;20013;-80
2022/10/22 02:59:35;;;;;;;72.60;38.90;;;;;;;;;;5036591;28;20522;-79
2022/10/22 03:02:14;;;;;;;72.32;39.70;;;;;;;;;;5058718;28;20551;-79
2022/10/22 03:04:50;;;;;;;71.90;39.60;;;;;;;;;;5056167;28;20051;-78
2022/10/22 03:07:20;;;;;;;74.18;41.17;;;;;;;;;;5044822;28;20025;-79
2022/10/22 03:09:46;;;;;;;77.00;41.38;;;;;;;;;;5034458;28;20045;-79
2022/10/22 03:12:12;;;;;;;69.93;39.70;;;;;;;;;;5034147;28;20028;-79
2022/10/22 03:14:41;;;;;;;68.30;37.85;;;;;;;;;;5042689;28;20021;-79
2022/10/22 03:17:07;;;;;;;71.75;38.25;;;;;;;;;;5016547;28;20022;-77
2022/10/22 03:19:33;;;;;;;69.88;38.78;;;;;;;;;;5007913;28;20022;-79
2022/10/22 03:22:00;;;;;;;69.25;38.17;;;;;;;;;;5054427;28;20021;-79
2022/10/22 03:25:03;;;;;;;68.22;37.40;;;;;;;;;;5045231;28;20017;-80
2022/10/22 03:27:41;;;;;;;64.55;35.88;;;;;;;;;;5004684;28;20030;-79
2022/10/22 03:30:10;;;;;;;68.57;38.35;;;;;;;;;;5041504;28;20116;-79
2022/10/22 03:32:36;;;;;;;67.05;37.58;;;;;;;;;;5047022;28;20024;-79
2022/10/22 03:35:06;;;;;;;67.80;37.80;;;;;;;;;;5039393;28;20033;-79
2022/10/22 03:37:33;;;;;;;62.45;35.75;;;;;;;;;;5027236;28;20026;-79
2022/10/22 03:39:59;;;;;;;64.40;34.83;;;;;;;;;;5050368;28;20033;-79
2022/10/22 03:42:25;;;;;;;61.58;34.47;;;;;;;;;;5054975;28;20021;-79
2022/10/22 03:44:52;;;;;;;63.38;35.20;;;;;;;;;;5041435;28;20033;-80
2022/10/22 03:47:18;;;;;;;62.13;36.10;;;;;;;;;;5052806;28;20021;-79
2022/10/22 03:49:57;;;;;;;61.17;35.42;;;;;;;;;;5042225;28;20025;-80
2022/10/22 03:52:24;;;;;;;68.68;36.95;;;;;;;;;;5046151;28;20049;-80
2022/10/22 03:54:56;;;;;;;60.10;35.90;;;;;;;;;;5031537;28;20029;-79
2022/10/22 03:57:25;;;;;;;64.63;36.42;;;;;;;;;;5056148;28;20467;-80
2022/10/22 03:59:57;;;;;;;72.00;38.28;;;;;;;;;;5042824;28;20041;-79
2022/10/22 04:02:26;;;;;;;81.47;40.45;;;;;;;;;;5034957;28;20036;-79
2022/10/22 04:04:52;;;;;;;69.18;40.05;;;;;;;;;;5029309;28;20018;-78
2022/10/22 04:07:24;;;;;;;73.15;40.35;;;;;;;;;;5032140;28;20056;-79
2022/10/22 04:09:51;;;;;;;74.57;39.10;;;;;;;;;;5029059;28;20022;-79
2022/10/22 04:12:20;;;;;;;76.97;40.63;;;;;;;;;;5033104;28;20112;-79
2022/10/22 04:14:47;;;;;;;76.97;39.47;;;;;;;;;;5031261;28;20056;-80
2022/10/22 04:17:19;;;;;;;82.07;42.08;;;;;;;;;;5048783;28;20021;-81
2022/10/22 04:19:55;;;;;;;77.90;40.40;;;;;;;;;;5031755;28;20029;-81
2022/10/22 04:22:26;;;;;;;84.88;42.42;;;;;;;;;;5051273;28;20021;-80
2022/10/22 04:24:53;;;;;;;73.97;38.65;;;;;;;;;;5043147;28;20055;-78
2022/10/22 04:27:21;;;;;;;76.57;40.45;;;;;;;;;;5034411;28;20484;-80
2022/10/22 04:29:48;;;;;;;74.72;40.00;;;;;;;;;;5039822;28;20057;-80
2022/10/22 04:32:14;;;;;;;76.38;39.22;;;;;;;;;;5045362;28;20026;-79
2022/10/22 04:34:40;;;;;;;77.13;39.42;;;;;;;;;;5026658;28;20035;-79
2022/10/22 04:37:06;;;;;;;67.63;38.67;;;;;;;;;;5033848;28;20022;-79
2022/10/22 04:39:32;;;;;;;71.00;37.75;;;;;;;;;;5047800;28;20025;-80
2022/10/22 04:41:58;;;;;;;68.80;37.05;;;;;;;;;;5036083;28;20032;-81
2022/10/22 04:44:26;;;;;;;65.57;36.22;;;;;;;;;;5047031;28;20033;-81
2022/10/22 04:46:55;;;;;;;67.53;36.58;;;;;;;;;;5032315;28;20022;-80
2022/10/22 04:49:21;;;;;;;68.10;37.15;;;;;;;;;;5046328;28;20052;-80
2022/10/22 04:51:47;;;;;;;69.03;39.33;;;;;;;;;;5045346;28;20368;-80
2022/10/22 04:54:13;;;;;;;73.28;39.85;;;;;;;;;;5036013;28;20022;-80
2022/10/22 04:57:04;;;;;;;76.25;39.42;;;;;;;;;;5034113;28;20412;-79
2022/10/22 04:59:32;;;;;;;76.32;38.80;;;;;;;;;;5040015;28;20556;-79
2022/10/22 05:01:59;;;;;;;78.47;41.15;;;;;;;;;;5038191;28;20034;-79
2022/10/22 05:04:29;;;;;;;73.53;39.83;;;;;;;;;;5046862;28;20024;-79
2022/10/22 05:06:58;;;;;;;72.32;37.30;;;;;;;;;;5054763;28;20100;-79
2022/10/22 05:09:27;;;;;;;75.55;39.63;;;;;;;;;;5043689;28;20473;-80
2022/10/22 05:12:10;;;;;;;67.15;38.10;;;;;;;;;;5038558;28;20514;-80
2022/10/22 05:14:36;;;;;;;70.78;38.50;;;;;;;;;;5036079;28;20078;-79
2022/10/22 05:17:05;;;;;;;69.57;37.90;;;;;;;;;;5047667;28;20148;-79
2022/10/22 05:19:33;;;;;;;67.70;37.58;;;;;;;;;;5025407;28;20048;-79
2022/10/22 05:22:01;;;;;;;72.35;37.58;;;;;;;;;;5035585;28;20082;-80
2022/10/22 05:24:28;;;;;;;70.93;39.83;;;;;;;;;;5034379;28;20108;-79
2022/10/22 05:26:55;;;;;;;72.97;40.67;;;;;;;;;;5027562;28;20029;-79
2022/10/22 05:29:21;;;;;;;64.22;37.05;;;;;;;;;;5035488;28;20021;-79
2022/10/22 05:31:50;;;;;;;65.65;37.05;;;;;;;;;;5026581;28;20117;-79
2022/10/22 05:34:19;;;;;;;59.25;35.72;;;;;;;;;;5044836;28;20057;-78
2022/10/22 05:36:48;;;;;;;73.38;38.58;;;;;;;;;;5026618;28;20018;-78
2022/10/22 05:39:24;;;;;;;71.47;38.30;;;;;;;;;;5029869;28;20032;-77
2022/10/22 05:41:53;;;;;;;67.68;36.63;;;;;;;;;;5031274;28;20017;-77
2022/10/22 05:44:24;;;;;;;61.95;36.25;;;;;;;;;;5028664;28;20033;-78
2022/10/22 05:46:51;;;;;;;66.95;37.58;;;;;;;;;;5024295;28;20105;-79
2022/10/22 05:49:17;;;;;;;66.15;36.55;;;;;;;;;;5031583;28;20064;-79
2022/10/22 05:51:43;;;;;;;62.65;35.28;;;;;;;;;;5024117;28;20029;-78
2022/10/22 05:54:15;;;;;;;60.40;35.90;;;;;;;;;;5030240;28;20413;-77
2022/10/22 05:56:46;;;;;;;60.03;35.15;;;;;;;;;;5040278;28;20406;-78
2022/10/22 07:28:40;;;;;;;;;;;;;;;;;;;;;
2022/10/22 07:43:00;;;;;;;130.27;47.85;;;;;;;;;;5609654;22;20088;-79
2022/10/22 07:45:29;;;;;;;130.65;49.35;;;;;;;;;;5074065;28;20452;-80
2022/10/22 07:47:55;;;;;;;136.93;51.83;;;;;;;;;;5057016;28;20076;-81
2022/10/22 07:50:24;;;;;;;124.93;51.33;;;;;;;;;;5070170;28;20495;-81
2022/10/22 07:52:50;;;;;;;181.27;57.22;;;;;;;;;;5056606;28;20040;-80
2022/10/22 07:55:16;;;;;;;178.93;60.78;;;;;;;;;;5057362;28;20020;-81
2022/10/22 07:57:42;;;;;;;236.98;68.07;;;;;;;;;;5056315;28;20025;-80
2022/10/22 08:00:08;;;;;;;210.43;66.82;;;;;;;;;;5039779;28;20124;-80
2022/10/22 08:02:35;;;;;;;271.25;140.52;;;;;;;;;;5038971;28;20033;-81
2022/10/22 08:05:03;;;;;;;137.80;58.72;;;;;;;;;;5054664;28;20455;-79
2022/10/22 08:07:29;;;;;;;91.95;42.47;;;;;;;;;;5046620;28;20032;-79
2022/10/22 08:09:55;;;;;;;62.72;37.83;;;;;;;;;;5059250;28;20033;-80
2022/10/22 08:12:21;;;;;;;48.38;27.88;;;;;;;;;;5054479;28;20024;-80
2022/10/22 08:14:47;;;;;;;51.53;23.95;;;;;;;;;;5063320;28;20475;-80
2022/10/22 08:17:17;;;;;;;31.85;16.90;;;;;;;;;;5035888;28;20064;-76
2022/10/22 08:19:43;;;;;;;20.90;10.63;;;;;;;;;;5053141;28;20021;-79
2022/10/22 08:22:09;;;;;;;15.95;8.55;;;;;;;;;;5035370;28;20017;-80
2022/10/22 08:24:35;;;;;;;9.20;6.32;;;;;;;;;;5053200;28;20438;-82
2022/10/22 08:27:01;;;;;;;9.40;6.70;;;;;;;;;;5054146;28;20238;-79
2022/10/22 08:29:27;;;;;;;9.10;5.78;;;;;;;;;;5056564;28;20139;-80
2022/10/22 08:31:53;;;;;;;11.07;6.90;;;;;;;;;;5057557;28;20478;-79
2022/10/22 08:34:20;;;;;;;12.02;6.95;;;;;;;;;;5043714;28;20116;-79
2022/10/22 08:36:46;;;;;;;8.15;5.43;;;;;;;;;;5068713;28;20021;-79
2022/10/22 08:39:15;;;;;;;10.20;7.20;;;;;;;;;;5068657;28;20021;-80
2022/10/22 08:41:44;;;;;;;12.55;7.97;;;;;;;;;;5079608;28;20048;-82
2022/10/22 08:44:19;;;;;;;9.88;6.93;;;;;;;;;;5075134;28;20063;-83
2022/10/22 08:46:52;;;;;;;13.60;8.38;;;;;;;;;;5069431;28;20031;-80
2022/10/22 08:49:20;;;;;;;20.10;9.27;;;;;;;;;;5053430;28;20025;-80
2022/10/22 08:51:46;;;;;;;13.20;7.93;;;;;;;;;;5067086;28;20113;-79
2022/10/22 08:54:18;;;;;;;12.85;8.45;;;;;;;;;;5057239;28;20017;-80
2022/10/22 08:56:45;;;;;;;15.82;9.18;;;;;;;;;;5058285;28;20019;-80
2022/10/22 08:59:15;;;;;;;45.58;20.65;;;;;;;;;;5071652;28;20021;-80
2022/10/22 09:01:42;;;;;;;73.72;35.80;;;;;;;;;;5060781;28;20028;-81
2022/10/22 09:04:14;;;;;;;74.80;36.38;;;;;;;;;;5072470;28;20032;-79
2022/10/22 09:06:43;;;;;;;79.38;37.53;;;;;;;;;;5047489;28;20044;-79
2022/10/22 09:09:14;;;;;;;162.98;52.92;;;;;;;;;;5041779;28;20025;-78
2022/10/22 09:11:42;;;;;;;140.82;49.03;;;;;;;;;;5057521;28;20021;-75
2022/10/22 09:14:12;;;;;;;154.70;51.30;;;;;;;;;;5058619;28;20012;-79
2022/10/22 09:16:43;;;;;;;76.82;38.90;;;;;;;;;;5063353;28;20055;-76
2022/10/22 09:19:16;;;;;;;98.13;41.13;;;;;;;;;;5037578;28;20058;-76
2022/10/22 09:21:48;;;;;;;119.15;45.05;;;;;;;;;;5051169;28;20028;-77
2022/10/22 09:24:33;;;;;;;83.97;38.08;;;;;;;;;;5067191;28;20029;-76
2022/10/22 09:26:59;;;;;;;68.68;36.95;;;;;;;;;;5034717;28;20099;-78
2022/10/22 09:29:30;;;;;;;70.63;37.33;;;;;;;;;;5056224;28;20025;-80
2022/10/22 09:32:02;;;;;;;100.53;48.45;;;;;;;;;;5062311;28;20021;-82
2022/10/22 09:34:37;;;;;;;133.30;54.80;;;;;;;;;;5045148;28;20116;-82
2022/10/22 09:37:04;;;;;;;80.38;42.63;;;;;;;;;;5069155;28;20016;-80
2022/10/22 09:39:30;;;;;;;81.68;44.10;;;;;;;;;;5048389;28;20383;-82
2022/10/22 09:41:56;;;;;;;76.63;42.97;;;;;;;;;;5048792;28;20027;-79
2022/10/22 09:44:22;;;;;;;75.35;41.30;;;;;;;;;;5077703;28;20036;-81
2022/10/22 09:46:48;;;;;;;79.13;42.78;;;;;;;;;;5069652;28;20081;-83
2022/10/22 09:49:16;;;;;;;92.93;45.03;;;;;;;;;;5069059;28;20025;-82
2022/10/22 09:51:51;;;;;;;49.63;32.50;;;;;;;;;;5072169;28;20021;-82
2022/10/22 09:54:37;;;;;;;48.65;32.13;;;;;;;;;;5054519;28;20031;-83
2022/10/22 09:57:05;;;;;;;53.65;32.05;;;;;;;;;;5079593;28;20072;-84
2022/10/22 09:59:32;;;;;;;60.28;35.20;;;;;;;;;;5089360;28;20042;-79
2022/10/22 10:02:14;;;;;;;54.38;32.10;;;;;;;;;;5083946;28;20020;-82
2022/10/22 10:07:55;;;;;;;36.97;24.88;;;;;;;;;;5080803;28;19905;-83
2022/10/22 10:10:52;;;;;;;35.58;21.52;;;;;;;;;;5068568;28;20029;-82
2022/10/22 10:13:29;;;;;;;20.88;15.05;;;;;;;;;;5061012;28;20021;-79
2022/10/22 10:16:01;;;;;;;27.30;16.60;;;;;;;;;;5054432;28;20112;-83
2022/10/22 10:18:36;;;;;;;21.63;15.57;;;;;;;;;;5080110;28;20029;-78
2022/10/22 10:21:18;;;;;;;21.10;15.35;;;;;;;;;;5035758;28;20021;-80
2022/10/22 10:23:44;;;;;;;19.70;13.60;;;;;;;;;;5043086;28;20033;-80
2022/10/22 10:26:33;;;;;;;21.65;15.02;;;;;;;;;;5056224;28;20032;-80
2022/10/22 10:29:18;;;;;;;16.38;12.52;;;;;;;;;;5049592;28;20041;-81
2022/10/22 10:31:44;;;;;;;15.98;12.40;;;;;;;;;;5071938;28;20506;-82
2022/10/22 10:34:28;;;;;;;18.63;14.40;;;;;;;;;;5055691;28;20021;-79
2022/10/22 10:37:09;;;;;;;21.23;15.65;;;;;;;;;;5055772;28;20060;-81
2022/10/22 10:39:35;;;;;;;18.92;14.02;;;;;;;;;;5070392;28;20496;-80
2022/10/22 10:42:01;;;;;;;18.23;15.68;;;;;;;;;;5055785;28;20025;-80
2022/10/22 10:44:33;;;;;;;20.95;14.85;;;;;;;;;;5057457;28;20036;-80
2022/10/22 10:47:11;;;;;;;18.90;14.32;;;;;;;;;;5045826;28;20102;-80
2022/10/22 10:49:37;;;;;;;17.30;14.32;;;;;;;;;;5077639;28;20483;-81
2022/10/22 10:52:22;;;;;;;16.10;13.52;;;;;;;;;;5058088;28;20062;-83
2022/10/22 10:54:59;;;;;;;19.90;13.10;;;;;;;;;;5073168;28;20020;-81
2022/10/22 10:57:51;;;;;;;19.58;12.23;;;;;;;;;;5049541;28;20021;-84
2022/10/22 11:00:18;;;;;;;11.90;10.02;;;;;;;;;;5046196;28;20047;-83
2022/10/22 11:02:44;;;;;;;15.25;8.93;;;;;;;;;;5077199;28;20378;-82
2022/10/22 11:05:22;;;;;;;3.67;3.38;;;;;;;;;;5058709;28;20028;-81
2022/10/22 11:07:51;;;;;;;2.85;1.30;;;;;;;;;;5057292;28;20021;-79
2022/10/22 11:10:50;;;;;;;1.30;1.10;;;;;;;;;;5056338;28;20386;-82
2022/10/22 11:13:16;;;;;;;1.58;1.33;;;;;;;;;;5015003;28;20372;-79
2022/10/22 11:15:45;;;;;;;1.83;1.00;;;;;;;;;;5067400;28;20028;-80
2022/10/22 11:18:23;;;;;;;1.23;0.88;;;;;;;;;;5040932;28;20024;-80
2022/10/22 11:20:49;;;;;;;0.95;0.88;;;;;;;;;;5068307;28;20510;-81
2022/10/22 11:23:32;;;;;;;1.10;0.95;;;;;;;;;;5052710;28;20054;-80
2022/10/22 11:25:59;;;;;;;1.05;0.55;;;;;;;;;;5074245;28;20033;-82
2022/10/22 11:28:39;;;;;;;1.90;0.80;;;;;;;;;;5083254;28;20044;-81
2022/10/22 11:31:09;;;;;;;1.15;0.70;;;;;;;;;;5075012;28;20032;-81
2022/10/22 11:33:42;;;;;;;2.05;0.80;;;;;;;;;;5059067;28;20111;-81
2022/10/22 11:36:08;;;;;;;0.82;0.68;;;;;;;;;;5064662;28;20495;-80
2022/10/22 11:38:35;;;;;;;2.67;1.33;;;;;;;;;;5065780;28;20048;-81
2022/10/22 11:41:04;;;;;;;1.17;0.80;;;;;;;;;;5068388;28;20453;-82
2022/10/22 11:43:48;;;;;;;1.05;0.70;;;;;;;;;;5068808;28;20470;-82
2022/10/22 11:46:15;;;;;;;1.40;1.08;;;;;;;;;;5058058;28;20024;-81
2022/10/22 11:48:41;;;;;;;5.93;1.10;;;;;;;;;;5061011;28;20023;-84
2022/10/22 11:51:26;;;;;;;2.92;1.15;;;;;;;;;;5085618;28;20017;-86
2022/10/22 11:53:55;;;;;;;7.55;1.58;;;;;;;;;;5077041;28;20052;-83
2022/10/22 11:56:23;;;;;;;2.15;1.38;;;;;;;;;;5072665;28;20028;-82
2022/10/22 11:58:49;;;;;;;1.80;1.35;;;;;;;;;;5071961;28;20044;-83
2022/10/22 12:01:22;;;;;;;1.92;1.10;;;;;;;;;;5088519;28;20415;-81
2022/10/22 12:03:48;;;;;;;3.88;1.65;;;;;;;;;;5087727;28;20385;-82
2022/10/22 12:06:14;;;;;;;1.35;0.98;;;;;;;;;;5087408;28;20028;-81
2022/10/22 12:08:46;;;;;;;5.38;1.45;;;;;;;;;;5063486;28;20033;-81
2022/10/22 12:11:14;;;;;;;0.98;0.85;;;;;;;;;;5055135;28;20033;-79
2022/10/22 12:14:15;;;;;;;3.10;1.52;;;;;;;;;;5051031;28;20040;-80
2022/10/22 12:16:56;;;;;;;2.30;1.25;;;;;;;;;;5052283;28;20029;-81
2022/10/22 12:19:22;;;;;;;1.30;1.10;;;;;;;;;;5062090;28;20017;-83
2022/10/22 12:21:59;;;;;;;2.85;1.50;;;;;;;;;;5062159;28;20017;-82
2022/10/22 12:24:29;;;;;;;3.45;1.23;;;;;;;;;;5072668;28;20109;-81
2022/10/22 12:26:55;;;;;;;3.13;0.90;;;;;;;;;;5080183;28;20052;-80
2022/10/22 12:29:22;;;;;;;1.20;0.90;;;;;;;;;;5070216;28;20036;-80
2022/10/22 12:31:49;;;;;;;2.50;1.05;;;;;;;;;;5070966;28;20029;-78
2022/10/22 12:34:16;;;;;;;2.42;1.58;;;;;;;;;;5069275;28;20107;-80
2022/10/22 12:36:42;;;;;;;4.68;1.20;;;;;;;;;;5040873;28;20021;-79
2022/10/22 12:39:11;;;;;;;2.05;1.02;;;;;;;;;;5058939;28;20013;-79
2022/10/22 12:41:37;;;;;;;2.42;1.25;;;;;;;;;;5068984;28;20107;-79
2022/10/22 12:44:04;;;;;;;1.60;1.23;;;;;;;;;;5061617;28;20029;-79
2022/10/22 12:46:32;;;;;;;4.45;1.00;;;;;;;;;;5087265;28;20071;-80
2022/10/22 12:49:09;;;;;;;3.20;1.45;;;;;;;;;;5058376;28;20039;-76
2022/10/22 12:51:40;;;;;;;2.47;1.00;;;;;;;;;;5055681;28;20024;-79
2022/10/22 12:54:14;;;;;;;1.38;1.10;;;;;;;;;;5039653;28;20025;-79
2022/10/22 12:56:40;;;;;;;1.42;1.15;;;;;;;;;;5055567;28;20037;-77
2022/10/22 12:59:16;;;;;;;3.50;1.40;;;;;;;;;;5065986;28;20016;-80
2022/10/22 13:01:42;;;;;;;1.05;0.95;;;;;;;;;;5064260;28;20359;-80
2022/10/22 13:04:21;;;;;;;1.27;0.95;;;;;;;;;;5045682;28;20035;-80
2022/10/22 13:06:48;;;;;;;1.10;1.00;;;;;;;;;;5087340;28;20028;-80
2022/10/22 13:09:14;;;;;;;1.83;1.13;;;;;;;;;;5039574;28;20036;-82
2022/10/22 13:11:42;;;;;;;1.77;0.85;;;;;;;;;;5063628;28;20036;-84
2022/10/22 13:14:25;;;;;;;3.38;1.10;;;;;;;;;;5047831;28;20128;-81
2022/10/22 13:17:10;;;;;;;1.92;0.88;;;;;;;;;;5065533;28;20025;-82
2022/10/22 13:19:54;;;;;;;2.35;0.70;;;;;;;;;;5059551;28;20028;-79
2022/10/22 13:22:35;;;;;;;2.45;0.93;;;;;;;;;;5072795;28;20104;-82
2022/10/22 13:25:13;;;;;;;1.38;1.00;;;;;;;;;;5079724;28;20025;-83
2022/10/22 13:27:51;;;;;;;1.88;1.00;;;;;;;;;;5065743;28;20056;-83
2022/10/22 13:30:27;;;;;;;1.35;0.85;;;;;;;;;;5068215;28;20071;-79
2022/10/22 13:32:58;;;;;;;0.73;0.55;;;;;;;;;;5065280;28;20017;-80
2022/10/22 13:35:28;;;;;;;1.58;0.70;;;;;;;;;;5051081;28;20036;-83
2022/10/22 13:37:55;;;;;;;1.65;0.90;;;;;;;;;;5086192;28;20017;-81
2022/10/22 13:40:21;;;;;;;1.92;0.90;;;;;;;;;;5068303;28;20120;-84
2022/10/22 13:42:50;;;;;;;1.45;0.85;;;;;;;;;;5051001;28;20036;-82
2022/10/22 13:45:17;;;;;;;3.65;1.20;;;;;;;;;;5065319;28;20028;-84
2022/10/22 13:47:51;;;;;;;4.05;0.93;;;;;;;;;;5062703;28;20055;-82
2022/10/22 13:50:32;;;;;;;2.58;1.10;;;;;;;;;;5054127;28;20025;-84
2022/10/22 13:53:01;;;;;;;1.35;0.75;;;;;;;;;;5065052;28;20029;-85
2022/10/22 13:55:43;;;;;;;1.45;0.80;;;;;;;;;;5042946;28;20036;-84
2022/10/22 13:58:16;;;;;;;2.30;1.05;;;;;;;;;;5072943;28;20005;-82
2022/10/22 14:00:47;;;;;;;3.47;0.75;;;;;;;;;;5051257;28;20024;-83
2022/10/22 14:03:16;;;;;;;0.98;0.85;;;;;;;;;;5080687;28;20024;-85
2022/10/22 14:05:45;;;;;;;2.05;0.98;;;;;;;;;;5085705;28;20051;-82
2022/10/22 14:08:12;;;;;;;3.08;0.80;;;;;;;;;;5088948;28;20020;-88
2022/10/22 14:10:38;;;;;;;3.25;1.55;;;;;;;;;;5073096;28;20245;-82
2022/10/22 14:13:12;;;;;;;1.25;0.77;;;;;;;;;;5068372;28;20111;-84
2022/10/22 14:15:38;;;;;;;4.25;0.80;;;;;;;;;;5069280;28;20067;-87
2022/10/22 14:18:10;;;;;;;2.97;0.95;;;;;;;;;;5075191;28;20013;-79
2022/10/22 14:20:39;;;;;;;2.03;0.90;;;;;;;;;;5075680;28;20017;-88
2022/10/22 14:23:16;;;;;;;1.88;0.90;;;;;;;;;;5076470;28;20073;-83
2022/10/22 14:25:42;;;;;;;1.95;0.70;;;;;;;;;;5094379;28;20043;-81
2022/10/22 14:28:09;;;;;;;1.67;1.00;;;;;;;;;;5076086;28;20017;-84
2022/10/22 14:30:35;;;;;;;1.38;0.95;;;;;;;;;;5062657;28;20032;-80
2022/10/22 14:33:01;;;;;;;3.78;1.20;;;;;;;;;;5061993;28;20013;-81
2022/10/22 14:35:27;;;;;;;1.23;0.75;;;;;;;;;;5087277;28;20021;-81
2022/10/22 14:37:53;;;;;;;1.40;0.80;;;;;;;;;;5069413;28;20036;-83
2022/10/22 14:40:20;;;;;;;1.20;0.70;;;;;;;;;;5082044;28;20027;-86
2022/10/22 14:42:47;;;;;;;1.33;0.95;;;;;;;;;;5096276;28;20009;-87
2022/10/22 14:45:23;;;;;;;2.47;0.90;;;;;;;;;;5086015;28;20028;-86
2022/10/22 14:47:56;;;;;;;3.17;1.02;;;;;;;;;;5087172;28;20020;-86
2022/10/22 14:50:23;;;;;;;1.40;1.00;;;;;;;;;;5066994;28;20028;-83
2022/10/22 14:52:49;;;;;;;3.40;1.20;;;;;;;;;;5068752;28;20021;-83
2022/10/22 14:55:16;;;;;;;1.20;0.85;;;;;;;;;;5084603;28;20040;-88
2022/10/22 14:57:42;;;;;;;2.33;1.23;;;;;;;;;;5099687;28;20037;-83
2022/10/22 15:00:12;;;;;;;1.23;1.13;;;;;;;;;;5066603;28;20053;-87
2022/10/22 15:02:39;;;;;;;1.20;1.10;;;;;;;;;;5079245;28;20020;-86
2022/10/22 15:05:05;;;;;;;1.70;1.17;;;;;;;;;;5094878;28;20020;-81
2022/10/22 15:07:31;;;;;;;2.15;0.90;;;;;;;;;;5095832;28;20043;-80
2022/10/22 15:10:00;;;;;;;2.03;1.08;;;;;;;;;;5080454;28;20025;-86
2022/10/22 15:12:26;;;;;;;2.65;1.10;;;;;;;;;;5087292;28;20044;-82
2022/10/22 15:14:52;;;;;;;1.73;0.85;;;;;;;;;;5062558;28;20025;-82
2022/10/22 15:17:18;;;;;;;1.73;0.80;;;;;;;;;;5075693;28;20079;-85
2022/10/22 15:19:44;;;;;;;3.45;1.00;;;;;;;;;;5073022;28;20023;-86
2022/10/22 15:22:11;;;;;;;1.73;1.10;;;;;;;;;;5078463;28;20030;-84
2022/10/22 15:24:37;;;;;;;2.80;1.05;;;;;;;;;;5075629;28;20124;-86
2022/10/22 15:27:03;;;;;;;1.45;0.90;;;;;;;;;;5078840;28;20083;-86
2022/10/22 15:29:31;;;;;;;1.45;0.90;;;;;;;;;;5088999;28;20031;-88
2022/10/22 15:31:58;;;;;;;2.75;1.00;;;;;;;;;;5062231;28;20064;-87
2022/10/22 15:34:26;;;;;;;2.83;1.20;;;;;;;;;;5079450;28;20001;-86
2022/10/22 15:36:53;;;;;;;3.80;1.27;;;;;;;;;;5097005;28;20072;-85
2022/10/22 15:39:19;;;;;;;5.30;1.35;;;;;;;;;;5065491;28;20465;-81
2022/10/22 15:41:46;;;;;;;1.52;1.17;;;;;;;;;;5086649;28;20028;-82
2022/10/22 15:44:16;;;;;;;4.22;1.30;;;;;;;;;;5070840;28;20036;-79
2022/10/22 15:46:42;;;;;;;1.77;1.05;;;;;;;;;;5070705;28;20072;-85
2022/10/22 15:49:08;;;;;;;1.92;1.00;;;;;;;;;;5081564;28;20043;-80
2022/10/22 15:51:34;;;;;;;2.78;1.27;;;;;;;;;;5092644;28;20029;-83
2022/10/22 15:54:01;;;;;;;1.30;1.20;;;;;;;;;;5077646;28;20025;-83
2022/10/22 15:56:27;;;;;;;2.63;1.40;;;;;;;;;;5093485;28;20019;-83
2022/10/22 15:58:54;;;;;;;3.72;2.10;;;;;;;;;;5053426;28;20032;-83
2022/10/22 16:01:20;;;;;;;3.55;2.45;;;;;;;;;;5068570;28;20035;-82
2022/10/22 16:03:46;;;;;;;1.52;1.40;;;;;;;;;;5073489;28;20033;-81
2022/10/22 16:06:13;;;;;;;5.07;1.30;;;;;;;;;;5073527;28;20027;-81
2022/10/22 16:08:39;;;;;;;4.15;2.08;;;;;;;;;;5083931;28;20051;-80
2022/10/22 16:11:05;;;;;;;5.32;3.38;;;;;;;;;;5071940;28;20033;-78
2022/10/22 16:13:31;;;;;;;4.10;1.83;;;;;;;;;;5073520;28;20433;-82
2022/10/22 16:15:57;;;;;;;5.32;2.58;;;;;;;;;;5074149;28;20025;-80
2022/10/22 16:18:23;;;;;;;2.15;1.70;;;;;;;;;;5074461;28;20017;-78
2022/10/22 16:20:49;;;;;;;2.22;1.98;;;;;;;;;;5088543;28;20069;-78
2022/10/22 16:23:17;;;;;;;2.95;2.65;;;;;;;;;;5087310;28;20099;-77
2022/10/22 16:25:44;;;;;;;3.13;2.47;;;;;;;;;;5054033;28;20009;-80
2022/10/22 16:28:10;;;;;;;2.42;2.22;;;;;;;;;;5076383;28;20033;-81
2022/10/22 16:30:37;;;;;;;4.50;2.50;;;;;;;;;;5096270;28;20025;-89
2022/10/22 16:33:04;;;;;;;5.97;2.58;;;;;;;;;;5096294;28;20017;-83